createdAt,value
2019-01-25T00:00:30.631Z,101.70
2019-01-25T00:01:06.106Z,99.70
2019-01-25T00:01:41.290Z,101.40
2019-01-25T00:02:16.235Z,100.70
2019-01-25T00:02:51.635Z,109.30
2019-01-25T00:03:26.966Z,103.60
2019-01-25T00:04:02.564Z,95.50
2019-01-25T00:04:37.993Z,99.10
2019-01-25T00:05:13.190Z,98.90
2019-01-25T00:05:48.529Z,98.70
2019-01-25T00:06:23.873Z,93.10
2019-01-25T00:06:59.323Z,95.90
2019-01-25T00:07:35.127Z,102.90
2019-01-25T00:08:10.449Z,106.40
2019-01-25T00:08:45.957Z,111.90
2019-01-25T00:09:21.384Z,114.90
2019-01-25T00:09:58.686Z,108.10
2019-01-25T00:10:32.071Z,105.00
2019-01-25T00:11:07.292Z,105.80
2019-01-25T00:11:42.697Z,107.50
2019-01-25T00:12:18.292Z,107.30
2019-01-25T00:12:53.928Z,105.40
2019-01-25T00:13:29.337Z,107.10
2019-01-25T00:14:04.770Z,102.70
2019-01-25T00:14:39.975Z,92.30
2019-01-25T00:15:15.108Z,101.70
2019-01-25T00:15:50.328Z,105.20
2019-01-25T00:16:25.690Z,119.50
2019-01-25T00:17:01.239Z,116.70
2019-01-25T00:17:36.553Z,102.70
2019-01-25T00:18:11.841Z,113.30
2019-01-25T00:18:46.873Z,105.80
2019-01-25T00:19:22.367Z,98.10
2019-01-25T00:19:57.915Z,107.40
2019-01-25T00:20:33.613Z,105.80
2019-01-25T00:21:08.871Z,109.60
2019-01-25T00:21:44.096Z,108.50
2019-01-25T00:22:19.939Z,104.80
2019-01-25T00:22:55.063Z,103.40
2019-01-25T00:23:30.709Z,112.90
2019-01-25T00:24:06.222Z,111.00
2019-01-25T00:24:41.744Z,114.30
2019-01-25T00:25:17.353Z,107.00
2019-01-25T00:25:52.578Z,100.80
2019-01-25T00:26:27.920Z,100.20
2019-01-25T00:27:03.058Z,100.80
2019-01-25T00:27:38.754Z,119.30
2019-01-25T00:28:14.112Z,111.30
2019-01-25T00:28:49.477Z,105.00
2019-01-25T00:29:25.092Z,101.70
2019-01-25T00:30:00.689Z,101.60
2019-01-25T00:30:35.928Z,106.40
2019-01-25T00:31:11.127Z,100.10
2019-01-25T00:31:46.592Z,100.40
2019-01-25T00:32:22.201Z,109.00
2019-01-25T00:32:57.726Z,117.10
2019-01-25T00:33:33.021Z,114.00
2019-01-25T00:34:08.267Z,101.40
2019-01-25T00:34:43.568Z,99.70
2019-01-25T00:35:18.898Z,105.40
2019-01-25T00:35:54.110Z,104.30
2019-01-25T00:36:29.582Z,92.40
2019-01-25T00:37:04.981Z,99.00
2019-01-25T00:37:40.507Z,101.90
2019-01-25T00:38:16.112Z,100.20
2019-01-25T00:38:51.543Z,109.00
2019-01-25T00:39:27.038Z,101.10
2019-01-25T00:40:06.170Z,101.20
2019-01-25T00:40:37.981Z,104.30
2019-01-25T00:41:13.434Z,105.50
2019-01-25T00:41:48.839Z,105.60
2019-01-25T00:42:24.460Z,102.60
2019-01-25T00:42:59.870Z,108.40
2019-01-25T00:43:35.131Z,113.90
2019-01-25T00:44:10.651Z,103.10
2019-01-25T00:44:46.427Z,101.10
2019-01-25T00:45:21.935Z,102.30
2019-01-25T00:45:57.268Z,102.30
2019-01-25T00:46:32.792Z,100.80
2019-01-25T00:47:08.445Z,104.80
2019-01-25T00:47:43.538Z,109.80
2019-01-25T00:48:19.230Z,107.40
2019-01-25T00:48:54.833Z,98.00
2019-01-25T00:49:30.191Z,98.30
2019-01-25T00:50:05.815Z,97.30
2019-01-25T00:50:41.132Z,106.80
2019-01-25T00:51:16.739Z,112.80
2019-01-25T00:51:51.976Z,113.40
2019-01-25T00:52:27.472Z,102.20
2019-01-25T00:53:02.905Z,104.00
2019-01-25T00:53:38.096Z,104.40
2019-01-25T00:54:13.660Z,105.40
2019-01-25T00:54:48.846Z,110.70
2019-01-25T00:55:24.283Z,108.30
2019-01-25T00:55:59.469Z,114.80
2019-01-25T00:56:34.836Z,110.60
2019-01-25T00:57:10.211Z,110.20
2019-01-25T00:57:45.599Z,112.00
2019-01-25T00:58:21.209Z,109.20
2019-01-25T00:58:56.739Z,107.50
2019-01-25T00:59:32.058Z,111.80
2019-01-25T01:00:07.077Z,115.90
2019-01-25T01:00:42.486Z,108.60
2019-01-25T01:01:17.847Z,96.00
2019-01-25T01:01:53.547Z,92.90
2019-01-25T01:02:28.883Z,106.20
2019-01-25T01:03:04.178Z,101.70
2019-01-25T01:03:39.631Z,106.00
2019-01-25T01:04:14.933Z,111.30
2019-01-25T01:04:50.603Z,103.40
2019-01-25T01:05:26.113Z,105.90
2019-01-25T01:06:01.757Z,115.80
2019-01-25T01:06:36.996Z,117.70
2019-01-25T01:07:12.097Z,116.80
2019-01-25T01:07:47.305Z,103.80
2019-01-25T01:08:22.736Z,91.50
2019-01-25T01:08:58.440Z,97.10
2019-01-25T01:09:33.675Z,98.90
2019-01-25T01:10:14.009Z,105.40
2019-01-25T01:10:44.312Z,106.50
2019-01-25T01:11:19.877Z,104.80
2019-01-25T01:11:55.059Z,103.40
2019-01-25T01:12:30.655Z,109.50
2019-01-25T01:13:06.107Z,107.50
2019-01-25T01:13:41.384Z,106.60
2019-01-25T01:14:16.726Z,101.90
2019-01-25T01:14:51.933Z,104.90
2019-01-25T01:15:27.873Z,110.00
2019-01-25T01:16:03.161Z,111.00
2019-01-25T01:16:38.507Z,109.50
2019-01-25T01:17:13.722Z,99.20
2019-01-25T01:17:50.434Z,101.10
2019-01-25T01:18:26.170Z,105.20
2019-01-25T01:19:01.931Z,111.90
2019-01-25T01:19:37.695Z,113.90
2019-01-25T01:20:12.985Z,112.60
2019-01-25T01:20:49.032Z,117.10
2019-01-25T01:21:24.693Z,114.60
2019-01-25T01:22:00.127Z,110.50
2019-01-25T01:22:35.440Z,108.50
2019-01-25T01:23:10.761Z,111.40
2019-01-25T01:23:46.081Z,114.60
2019-01-25T01:24:21.408Z,118.80
2019-01-25T01:24:56.701Z,124.80
2019-01-25T01:25:32.128Z,116.00
2019-01-25T01:26:07.436Z,112.40
2019-01-25T01:26:42.696Z,114.90
2019-01-25T01:27:17.989Z,101.60
2019-01-25T01:27:53.245Z,103.90
2019-01-25T01:28:28.544Z,111.10
2019-01-25T01:29:03.872Z,111.90
2019-01-25T01:29:39.266Z,110.00
2019-01-25T01:30:14.387Z,116.10
2019-01-25T01:30:49.614Z,112.80
2019-01-25T01:31:24.968Z,121.10
2019-01-25T01:32:00.181Z,116.90
2019-01-25T01:32:35.423Z,109.80
2019-01-25T01:33:10.932Z,109.60
2019-01-25T01:33:46.163Z,106.50
2019-01-25T01:34:21.377Z,106.50
2019-01-25T01:34:56.699Z,110.30
2019-01-25T01:35:32.154Z,116.40
2019-01-25T01:36:08.375Z,119.40
2019-01-25T01:36:44.089Z,114.80
2019-01-25T01:37:19.224Z,120.60
2019-01-25T01:37:54.510Z,128.30
2019-01-25T01:38:29.850Z,121.80
2019-01-25T01:39:05.354Z,115.60
2019-01-25T01:39:40.986Z,116.60
2019-01-25T01:40:21.798Z,114.50
2019-01-25T01:40:51.830Z,124.10
2019-01-25T01:41:27.264Z,118.10
2019-01-25T01:42:02.803Z,112.70
2019-01-25T01:42:38.699Z,109.70
2019-01-25T01:43:14.050Z,123.60
2019-01-25T01:43:49.475Z,126.50
2019-01-25T01:44:24.803Z,111.80
2019-01-25T01:45:00.263Z,124.30
2019-01-25T01:45:35.869Z,118.00
2019-01-25T01:46:11.262Z,106.80
2019-01-25T01:46:46.547Z,114.80
2019-01-25T01:47:21.736Z,112.20
2019-01-25T01:47:57.179Z,120.80
2019-01-25T01:48:32.285Z,115.80
2019-01-25T01:49:08.015Z,111.30
2019-01-25T01:49:43.219Z,110.30
2019-01-25T01:50:18.467Z,106.20
2019-01-25T01:50:53.566Z,113.50
2019-01-25T01:51:29.143Z,118.20
2019-01-25T01:52:04.538Z,112.60
2019-01-25T01:52:39.762Z,102.60
2019-01-25T01:53:15.159Z,111.60
2019-01-25T01:53:50.502Z,106.80
2019-01-25T01:54:25.901Z,102.20
2019-01-25T01:55:01.536Z,99.90
2019-01-25T01:55:36.846Z,98.90
2019-01-25T01:56:12.204Z,100.30
2019-01-25T01:56:47.803Z,98.20
2019-01-25T01:57:23.333Z,109.30
2019-01-25T01:57:58.751Z,104.00
2019-01-25T01:58:34.275Z,104.60
2019-01-25T01:59:09.685Z,109.20
2019-01-25T01:59:45.214Z,117.20
2019-01-25T02:00:20.235Z,111.50
2019-01-25T02:00:55.878Z,109.70
2019-01-25T02:01:31.301Z,106.90
2019-01-25T02:02:06.851Z,116.80
2019-01-25T02:02:42.159Z,114.80
2019-01-25T02:03:17.610Z,116.20
2019-01-25T02:03:52.723Z,119.20
2019-01-25T02:04:27.865Z,115.10
2019-01-25T02:05:03.187Z,115.60
2019-01-25T02:05:38.430Z,113.60
2019-01-25T02:06:13.964Z,103.50
2019-01-25T02:06:49.099Z,114.20
2019-01-25T02:07:24.498Z,109.30
2019-01-25T02:07:59.754Z,109.50
2019-01-25T02:08:35.067Z,111.20
2019-01-25T02:09:10.495Z,119.70
2019-01-25T02:09:45.985Z,113.40
2019-01-25T02:10:21.208Z,117.60
2019-01-25T02:10:56.808Z,117.10
2019-01-25T02:11:32.381Z,108.50
2019-01-25T02:12:07.674Z,102.90
2019-01-25T02:12:43.215Z,113.30
2019-01-25T02:13:18.439Z,127.40
2019-01-25T02:13:53.888Z,116.90
2019-01-25T02:14:29.390Z,115.50
2019-01-25T02:15:04.930Z,118.40
2019-01-25T02:15:40.536Z,112.00
2019-01-25T02:16:15.998Z,109.40
2019-01-25T02:16:51.497Z,113.60
2019-01-25T02:17:26.931Z,113.30
2019-01-25T02:18:02.425Z,114.10
2019-01-25T02:18:37.662Z,119.80
2019-01-25T02:19:13.602Z,116.10
2019-01-25T02:19:49.041Z,108.10
2019-01-25T02:20:24.331Z,119.40
2019-01-25T02:20:59.662Z,127.80
2019-01-25T02:21:35.082Z,133.30
2019-01-25T02:22:10.413Z,115.40
2019-01-25T02:22:45.667Z,113.80
2019-01-25T02:23:20.901Z,117.90
2019-01-25T02:23:56.409Z,118.30
2019-01-25T02:24:31.741Z,118.00
2019-01-25T02:25:07.049Z,115.00
2019-01-25T02:25:42.482Z,111.80
2019-01-25T02:26:18.018Z,112.30
2019-01-25T02:26:53.441Z,108.00
2019-01-25T02:27:28.548Z,108.70
2019-01-25T02:28:03.971Z,113.10
2019-01-25T02:28:39.433Z,110.80
2019-01-25T02:29:14.687Z,105.80
2019-01-25T02:29:50.182Z,111.70
2019-01-25T02:30:25.615Z,118.40
2019-01-25T02:31:01.125Z,112.60
2019-01-25T02:31:36.397Z,106.40
2019-01-25T02:32:11.883Z,111.10
2019-01-25T02:32:47.215Z,112.80
2019-01-25T02:33:22.434Z,111.00
2019-01-25T02:33:57.958Z,97.20
2019-01-25T02:34:33.162Z,100.60
2019-01-25T02:35:08.741Z,108.30
2019-01-25T02:35:44.995Z,108.00
2019-01-25T02:36:20.573Z,105.20
2019-01-25T02:36:55.969Z,105.60
2019-01-25T02:37:31.101Z,107.10
2019-01-25T02:38:06.315Z,118.10
2019-01-25T02:38:41.781Z,109.30
2019-01-25T02:39:16.969Z,111.00
2019-01-25T02:39:52.197Z,110.10
2019-01-25T02:40:27.612Z,108.30
2019-01-25T02:41:03.337Z,111.50
2019-01-25T02:41:38.681Z,113.60
2019-01-25T02:42:14.098Z,105.50
2019-01-25T02:42:49.904Z,102.20
2019-01-25T02:43:25.431Z,109.90
2019-01-25T02:44:01.244Z,118.60
2019-01-25T02:44:36.760Z,103.70
2019-01-25T02:45:11.977Z,104.50
2019-01-25T02:45:47.526Z,111.60
2019-01-25T02:46:22.953Z,106.80
2019-01-25T02:46:58.093Z,103.00
2019-01-25T02:47:33.314Z,109.40
2019-01-25T02:48:08.969Z,116.20
2019-01-25T02:48:44.382Z,117.70
2019-01-25T02:49:19.918Z,117.70
2019-01-25T02:49:55.026Z,119.20
2019-01-25T02:50:30.561Z,109.20
2019-01-25T02:51:05.764Z,121.40
2019-01-25T02:51:41.734Z,114.20
2019-01-25T02:52:17.314Z,110.40
2019-01-25T02:52:52.645Z,118.00
2019-01-25T02:53:27.836Z,115.60
2019-01-25T02:54:03.374Z,115.90
2019-01-25T02:54:38.580Z,110.40
2019-01-25T02:55:13.911Z,109.50
2019-01-25T02:55:49.316Z,102.20
2019-01-25T02:56:24.476Z,114.40
2019-01-25T02:56:59.972Z,113.50
2019-01-25T02:57:35.304Z,115.90
2019-01-25T02:58:10.413Z,111.40
2019-01-25T02:58:46.275Z,110.30
2019-01-25T02:59:21.676Z,110.50
2019-01-25T02:59:57.029Z,111.10
2019-01-25T03:00:32.566Z,111.50
2019-01-25T03:01:08.007Z,102.30
2019-01-25T03:01:43.442Z,107.30
2019-01-25T03:02:18.787Z,110.70
2019-01-25T03:02:54.939Z,114.90
2019-01-25T03:03:30.461Z,112.90
2019-01-25T03:04:05.867Z,111.10
2019-01-25T03:04:41.180Z,110.40
2019-01-25T03:05:16.379Z,109.30
2019-01-25T03:05:51.809Z,104.80
2019-01-25T03:06:27.125Z,107.70
2019-01-25T03:07:02.662Z,103.70
2019-01-25T03:07:37.965Z,101.10
2019-01-25T03:08:13.290Z,103.10
2019-01-25T03:08:48.696Z,107.30
2019-01-25T03:09:24.139Z,111.50
2019-01-25T03:09:59.325Z,116.20
2019-01-25T03:10:34.668Z,113.80
2019-01-25T03:11:09.877Z,112.80
2019-01-25T03:11:45.830Z,106.80
2019-01-25T03:12:21.233Z,110.90
2019-01-25T03:12:57.099Z,103.50
2019-01-25T03:13:32.303Z,108.10
2019-01-25T03:14:07.740Z,114.40
2019-01-25T03:14:43.028Z,108.70
2019-01-25T03:15:18.347Z,111.90
2019-01-25T03:15:53.649Z,112.30
2019-01-25T03:16:28.822Z,107.20
2019-01-25T03:17:04.231Z,103.70
2019-01-25T03:17:39.691Z,111.90
2019-01-25T03:18:14.993Z,116.00
2019-01-25T03:18:50.634Z,120.10
2019-01-25T03:19:26.038Z,113.90
2019-01-25T03:20:01.297Z,111.20
2019-01-25T03:20:36.779Z,114.20
2019-01-25T03:21:12.035Z,116.10
2019-01-25T03:21:47.340Z,117.60
2019-01-25T03:22:22.558Z,116.30
2019-01-25T03:22:57.865Z,106.00
2019-01-25T03:23:33.627Z,107.70
2019-01-25T03:24:09.239Z,112.30
2019-01-25T03:24:44.570Z,99.60
2019-01-25T03:25:20.483Z,100.20
2019-01-25T03:25:55.873Z,110.10
2019-01-25T03:26:31.239Z,113.70
2019-01-25T03:27:06.743Z,109.30
2019-01-25T03:27:42.259Z,108.20
2019-01-25T03:28:17.781Z,121.10
2019-01-25T03:28:52.986Z,119.60
2019-01-25T03:29:28.325Z,118.30
2019-01-25T03:30:03.645Z,113.90
2019-01-25T03:30:39.071Z,113.30
2019-01-25T03:31:14.505Z,114.70
2019-01-25T03:31:50.235Z,107.60
2019-01-25T03:32:25.533Z,106.90
2019-01-25T03:33:00.888Z,112.90
2019-01-25T03:33:36.529Z,120.30
2019-01-25T03:34:11.757Z,119.10
2019-01-25T03:34:47.062Z,117.00
2019-01-25T03:35:22.411Z,114.20
2019-01-25T03:35:57.641Z,111.10
2019-01-25T03:36:33.099Z,109.00
2019-01-25T03:37:08.307Z,107.50
2019-01-25T03:37:43.532Z,103.50
2019-01-25T03:38:18.855Z,111.80
2019-01-25T03:38:54.205Z,114.50
2019-01-25T03:39:29.458Z,109.00
2019-01-25T03:40:04.645Z,108.10
2019-01-25T03:40:40.048Z,113.00
2019-01-25T03:41:15.414Z,121.90
2019-01-25T03:41:51.041Z,124.50
2019-01-25T03:42:26.264Z,110.80
2019-01-25T03:43:01.818Z,109.60
2019-01-25T03:43:37.011Z,110.50
2019-01-25T03:44:12.203Z,110.20
2019-01-25T03:44:47.660Z,102.50
2019-01-25T03:45:23.274Z,113.10
2019-01-25T03:45:58.603Z,117.60
2019-01-25T03:46:33.935Z,101.80
2019-01-25T03:47:09.284Z,106.90
2019-01-25T03:47:44.583Z,114.60
2019-01-25T03:48:19.910Z,117.00
2019-01-25T03:48:55.313Z,107.60
2019-01-25T03:49:30.950Z,105.30
2019-01-25T03:50:06.168Z,105.50
2019-01-25T03:50:41.609Z,108.10
2019-01-25T03:51:17.027Z,107.00
2019-01-25T03:51:52.374Z,115.90
2019-01-25T03:52:27.773Z,115.90
2019-01-25T03:53:03.109Z,118.50
2019-01-25T03:53:38.406Z,127.50
2019-01-25T03:54:13.637Z,132.70
2019-01-25T03:54:48.950Z,131.50
2019-01-25T03:55:24.606Z,135.30
2019-01-25T03:55:59.933Z,144.80
2019-01-25T03:56:35.688Z,149.90
2019-01-25T03:57:11.004Z,135.20
2019-01-25T03:57:46.242Z,137.50
2019-01-25T03:58:21.655Z,127.80
2019-01-25T03:58:57.191Z,131.80
2019-01-25T03:59:32.596Z,129.90
2019-01-25T04:00:08.124Z,131.70
2019-01-25T04:00:43.416Z,134.40
2019-01-25T04:01:18.801Z,134.00
2019-01-25T04:01:53.990Z,145.50
2019-01-25T04:02:29.417Z,139.30
2019-01-25T04:03:04.725Z,133.40
2019-01-25T04:03:40.155Z,132.70
2019-01-25T04:04:15.470Z,133.80
2019-01-25T04:04:50.703Z,142.70
2019-01-25T04:05:26.320Z,142.60
2019-01-25T04:06:01.795Z,136.80
2019-01-25T04:06:37.209Z,141.40
2019-01-25T04:07:12.647Z,139.00
2019-01-25T04:07:47.937Z,137.50
2019-01-25T04:08:23.156Z,133.70
2019-01-25T04:08:58.348Z,129.10
2019-01-25T04:09:33.675Z,135.90
2019-01-25T04:10:08.903Z,135.60
2019-01-25T04:10:44.210Z,122.80
2019-01-25T04:11:19.659Z,125.90
2019-01-25T04:11:54.845Z,125.10
2019-01-25T04:12:30.476Z,123.60
2019-01-25T04:13:05.772Z,122.70
2019-01-25T04:13:41.104Z,129.90
2019-01-25T04:14:16.463Z,130.00
2019-01-25T04:14:51.674Z,131.20
2019-01-25T04:15:27.009Z,133.30
2019-01-25T04:16:02.352Z,136.50
2019-01-25T04:16:37.878Z,139.60
2019-01-25T04:17:13.180Z,135.70
2019-01-25T04:17:48.415Z,128.00
2019-01-25T04:18:24.024Z,136.20
2019-01-25T04:18:59.380Z,136.50
2019-01-25T04:19:35.039Z,137.60
2019-01-25T04:20:10.744Z,136.30
2019-01-25T04:20:45.989Z,151.20
2019-01-25T04:21:21.423Z,149.90
2019-01-25T04:21:56.941Z,138.10
2019-01-25T04:22:32.539Z,128.60
2019-01-25T04:23:08.794Z,141.40
2019-01-25T04:23:44.089Z,137.10
2019-01-25T04:24:19.519Z,139.10
2019-01-25T04:24:54.936Z,129.90
2019-01-25T04:25:30.360Z,117.90
2019-01-25T04:26:05.826Z,121.00
2019-01-25T04:26:41.578Z,137.10
2019-01-25T04:27:16.870Z,135.10
2019-01-25T04:27:52.525Z,141.30
2019-01-25T04:28:28.154Z,145.60
2019-01-25T04:29:03.454Z,162.40
2019-01-25T04:29:38.781Z,161.40
2019-01-25T04:30:14.185Z,157.90
2019-01-25T04:30:49.623Z,151.70
2019-01-25T04:31:25.048Z,151.10
2019-01-25T04:32:00.195Z,147.80
2019-01-25T04:32:35.637Z,136.30
2019-01-25T04:33:11.133Z,140.70
2019-01-25T04:33:46.779Z,146.40
2019-01-25T04:34:21.779Z,153.00
2019-01-25T04:34:57.017Z,147.80
2019-01-25T04:35:32.357Z,144.00
2019-01-25T04:36:08.110Z,141.50
2019-01-25T04:36:43.613Z,142.20
2019-01-25T04:37:19.058Z,146.20
2019-01-25T04:37:54.346Z,141.30
2019-01-25T04:38:29.763Z,150.50
2019-01-25T04:39:05.061Z,151.70
2019-01-25T04:39:40.800Z,138.50
2019-01-25T04:40:16.108Z,144.10
2019-01-25T04:40:51.449Z,139.30
2019-01-25T04:41:27.006Z,130.90
2019-01-25T04:42:06.206Z,148.20
2019-01-25T04:42:41.744Z,148.90
2019-01-25T04:43:17.353Z,140.00
2019-01-25T04:43:52.802Z,152.50
2019-01-25T04:44:28.299Z,150.40
2019-01-25T04:45:04.086Z,156.10
2019-01-25T04:45:39.527Z,152.00
2019-01-25T04:46:14.834Z,156.00
2019-01-25T04:46:51.016Z,146.20
2019-01-25T04:47:26.517Z,142.20
2019-01-25T04:48:01.843Z,149.10
2019-01-25T04:48:37.265Z,147.80
2019-01-25T04:49:12.397Z,144.10
2019-01-25T04:49:47.903Z,137.60
2019-01-25T04:50:23.141Z,145.10
2019-01-25T04:50:58.673Z,138.60
2019-01-25T04:51:33.980Z,121.00
2019-01-25T04:52:09.535Z,101.00
2019-01-25T04:52:45.050Z,95.90
2019-01-25T04:53:20.371Z,92.50
2019-01-25T04:53:56.187Z,96.80
2019-01-25T04:54:31.623Z,102.90
2019-01-25T04:55:06.921Z,100.70
2019-01-25T04:55:42.340Z,91.60
2019-01-25T04:56:17.844Z,87.40
2019-01-25T04:56:52.973Z,94.80
2019-01-25T04:57:28.528Z,101.00
2019-01-25T04:58:03.751Z,101.40
2019-01-25T04:58:38.780Z,104.90
2019-01-25T04:59:13.889Z,110.70
2019-01-25T04:59:49.410Z,114.40
2019-01-25T05:00:25.108Z,99.90
2019-01-25T05:01:00.742Z,93.70
2019-01-25T05:01:35.847Z,89.00
2019-01-25T05:02:11.094Z,89.10
2019-01-25T05:02:46.225Z,89.20
2019-01-25T05:03:21.629Z,91.60
2019-01-25T05:03:57.176Z,92.90
2019-01-25T05:04:32.670Z,90.40
2019-01-25T05:05:07.902Z,87.20
2019-01-25T05:05:43.213Z,86.00
2019-01-25T05:06:18.656Z,94.80
2019-01-25T05:06:53.901Z,87.50
2019-01-25T05:07:29.243Z,81.50
2019-01-25T05:08:04.452Z,85.30
2019-01-25T05:08:39.692Z,89.80
2019-01-25T05:09:14.905Z,79.70
2019-01-25T05:09:50.009Z,82.40
2019-01-25T05:10:25.139Z,95.50
2019-01-25T05:11:00.345Z,92.40
2019-01-25T05:11:36.776Z,88.70
2019-01-25T05:12:12.119Z,92.20
2019-01-25T05:12:49.059Z,91.00
2019-01-25T05:13:23.055Z,96.60
2019-01-25T05:13:58.498Z,93.70
2019-01-25T05:14:33.757Z,93.50
2019-01-25T05:15:08.991Z,93.90
2019-01-25T05:15:44.690Z,85.80
2019-01-25T05:16:20.155Z,98.40
2019-01-25T05:16:55.498Z,97.80
2019-01-25T05:17:30.951Z,89.50
2019-01-25T05:18:06.043Z,101.00
2019-01-25T05:18:41.512Z,106.20
2019-01-25T05:19:16.942Z,99.80
2019-01-25T05:19:52.473Z,100.90
2019-01-25T05:20:27.828Z,95.30
2019-01-25T05:21:03.333Z,93.00
2019-01-25T05:21:38.439Z,88.30
2019-01-25T05:22:13.689Z,94.60
2019-01-25T05:22:49.184Z,85.20
2019-01-25T05:23:24.624Z,90.60
2019-01-25T05:24:00.066Z,95.30
2019-01-25T05:24:35.581Z,89.10
2019-01-25T05:25:10.800Z,97.90
2019-01-25T05:25:46.200Z,102.70
2019-01-25T05:26:21.519Z,103.60
2019-01-25T05:26:56.936Z,103.70
2019-01-25T05:27:32.261Z,106.30
2019-01-25T05:28:07.620Z,110.90
2019-01-25T05:28:42.916Z,121.70
2019-01-25T05:29:18.058Z,120.00
2019-01-25T05:29:53.474Z,125.90
2019-01-25T05:30:29.387Z,116.70
2019-01-25T05:31:04.792Z,113.20
2019-01-25T05:31:40.215Z,104.30
2019-01-25T05:32:15.549Z,103.10
2019-01-25T05:32:50.784Z,118.30
2019-01-25T05:33:25.889Z,117.20
2019-01-25T05:34:01.518Z,118.00
2019-01-25T05:34:37.007Z,116.20
2019-01-25T05:35:12.346Z,120.90
2019-01-25T05:35:47.466Z,118.30
2019-01-25T05:36:22.801Z,112.00
2019-01-25T05:36:58.472Z,117.30
2019-01-25T05:37:33.890Z,121.80
2019-01-25T05:38:09.301Z,122.60
2019-01-25T05:38:44.490Z,125.40
2019-01-25T05:39:19.707Z,126.40
2019-01-25T05:39:55.216Z,124.10
2019-01-25T05:40:30.634Z,123.00
2019-01-25T05:41:05.940Z,123.60
2019-01-25T05:41:41.170Z,121.80
2019-01-25T05:42:16.710Z,125.10
2019-01-25T05:42:52.228Z,123.60
2019-01-25T05:43:27.570Z,130.90
2019-01-25T05:44:03.186Z,127.30
2019-01-25T05:44:38.623Z,136.50
2019-01-25T05:45:14.019Z,127.00
2019-01-25T05:45:49.237Z,122.40
2019-01-25T05:46:24.861Z,120.70
2019-01-25T05:47:00.210Z,114.10
2019-01-25T05:47:35.515Z,125.40
2019-01-25T05:48:11.061Z,123.00
2019-01-25T05:48:46.545Z,121.60
2019-01-25T05:49:22.002Z,118.20
2019-01-25T05:49:57.607Z,118.80
2019-01-25T05:50:32.952Z,120.00
2019-01-25T05:51:08.307Z,113.30
2019-01-25T05:51:43.690Z,117.30
2019-01-25T05:52:19.049Z,118.80
2019-01-25T05:52:54.162Z,120.30
2019-01-25T05:53:29.528Z,121.90
2019-01-25T05:54:04.822Z,115.00
2019-01-25T05:54:40.375Z,124.60
2019-01-25T05:55:15.787Z,124.50
2019-01-25T05:55:51.298Z,115.20
2019-01-25T05:56:26.712Z,116.20
2019-01-25T05:57:02.088Z,119.00
2019-01-25T05:57:37.592Z,127.50
2019-01-25T05:58:12.925Z,128.90
2019-01-25T05:58:48.276Z,118.80
2019-01-25T05:59:24.370Z,114.70
2019-01-25T05:59:59.915Z,116.70
2019-01-25T06:00:35.311Z,125.20
2019-01-25T06:01:10.737Z,128.40
2019-01-25T06:01:45.940Z,130.10
2019-01-25T06:02:21.193Z,122.50
2019-01-25T06:02:56.592Z,131.70
2019-01-25T06:03:32.122Z,138.80
2019-01-25T06:04:07.557Z,131.40
2019-01-25T06:04:43.075Z,128.80
2019-01-25T06:05:18.422Z,129.40
2019-01-25T06:05:53.715Z,133.20
2019-01-25T06:06:29.040Z,128.10
2019-01-25T06:07:04.537Z,124.30
2019-01-25T06:07:40.017Z,129.50
2019-01-25T06:08:15.028Z,126.00
2019-01-25T06:08:50.545Z,129.20
2019-01-25T06:09:25.903Z,129.30
2019-01-25T06:10:01.310Z,148.60
2019-01-25T06:10:39.611Z,150.90
2019-01-25T06:11:13.530Z,135.60
2019-01-25T06:11:49.186Z,134.00
2019-01-25T06:12:24.276Z,138.80
2019-01-25T06:12:59.541Z,139.30
2019-01-25T06:13:34.755Z,147.70
2019-01-25T06:14:10.387Z,140.70
2019-01-25T06:14:45.931Z,135.50
2019-01-25T06:15:22.312Z,138.70
2019-01-25T06:15:57.749Z,139.50
2019-01-25T06:16:33.268Z,138.40
2019-01-25T06:17:08.386Z,134.90
2019-01-25T06:17:43.487Z,127.20
2019-01-25T06:18:19.154Z,135.10
2019-01-25T06:18:54.456Z,135.60
2019-01-25T06:19:29.995Z,134.10
2019-01-25T06:20:05.207Z,140.90
2019-01-25T06:20:40.741Z,139.30
2019-01-25T06:21:16.144Z,136.30
2019-01-25T06:21:51.461Z,132.60
2019-01-25T06:22:27.170Z,132.70
2019-01-25T06:23:02.521Z,137.40
2019-01-25T06:23:38.037Z,130.90
2019-01-25T06:24:13.514Z,131.30
2019-01-25T06:24:50.545Z,123.00
2019-01-25T06:25:26.066Z,116.80
2019-01-25T06:26:01.608Z,111.30
2019-01-25T06:26:37.001Z,116.10
2019-01-25T06:27:12.330Z,114.90
2019-01-25T06:27:48.160Z,115.30
2019-01-25T06:28:23.354Z,114.20
2019-01-25T06:28:58.579Z,108.00
2019-01-25T06:29:33.829Z,110.00
2019-01-25T06:30:09.226Z,107.00
2019-01-25T06:30:44.573Z,120.10
2019-01-25T06:31:19.904Z,115.70
2019-01-25T06:31:55.392Z,118.40
2019-01-25T06:32:30.735Z,122.80
2019-01-25T06:33:06.020Z,120.00
2019-01-25T06:33:41.452Z,119.30
2019-01-25T06:34:16.910Z,117.40
2019-01-25T06:34:52.379Z,113.80
2019-01-25T06:35:28.018Z,112.50
2019-01-25T06:36:03.773Z,110.70
2019-01-25T06:36:39.389Z,119.30
2019-01-25T06:37:14.625Z,114.90
2019-01-25T06:37:49.748Z,113.00
2019-01-25T06:38:25.041Z,114.60
2019-01-25T06:39:00.411Z,115.10
2019-01-25T06:39:35.759Z,112.80
2019-01-25T06:40:11.392Z,115.90
2019-01-25T06:40:46.804Z,108.10
2019-01-25T06:41:25.117Z,107.50
2019-01-25T06:42:02.333Z,114.90
2019-01-25T06:42:38.038Z,123.00
2019-01-25T06:43:13.396Z,114.70
2019-01-25T06:43:48.635Z,111.50
2019-01-25T06:44:23.988Z,108.90
2019-01-25T06:44:59.423Z,127.50
2019-01-25T06:45:34.804Z,122.20
2019-01-25T06:46:09.998Z,116.00
2019-01-25T06:46:45.247Z,109.90
2019-01-25T06:47:20.480Z,114.90
2019-01-25T06:47:55.982Z,120.80
2019-01-25T06:48:31.392Z,125.50
2019-01-25T06:49:07.353Z,131.20
2019-01-25T06:49:42.421Z,135.50
2019-01-25T06:50:18.610Z,132.60
2019-01-25T06:50:53.924Z,117.70
2019-01-25T06:51:29.471Z,116.30
2019-01-25T06:52:05.909Z,112.90
2019-01-25T06:52:40.480Z,104.70
2019-01-25T06:53:16.217Z,105.20
2019-01-25T06:53:51.735Z,108.80
2019-01-25T06:54:27.381Z,108.20
2019-01-25T06:55:02.953Z,111.80
2019-01-25T06:55:38.292Z,105.30
2019-01-25T06:56:13.840Z,104.70
2019-01-25T06:56:49.479Z,106.20
2019-01-25T06:57:25.114Z,117.80
2019-01-25T06:58:00.799Z,126.00
2019-01-25T06:58:36.420Z,113.50
2019-01-25T06:59:11.571Z,107.10
2019-01-25T06:59:46.873Z,109.00
2019-01-25T07:00:22.382Z,106.50
2019-01-25T07:00:57.728Z,108.40
2019-01-25T07:01:33.344Z,103.90
2019-01-25T07:02:09.424Z,111.00
2019-01-25T07:02:45.079Z,116.70
2019-01-25T07:03:20.692Z,123.30
2019-01-25T07:03:55.928Z,120.00
2019-01-25T07:04:31.668Z,110.60
2019-01-25T07:05:07.821Z,107.60
2019-01-25T07:05:43.512Z,111.80
2019-01-25T07:06:18.868Z,97.90
2019-01-25T07:06:54.304Z,97.10
2019-01-25T07:07:29.609Z,107.60
2019-01-25T07:08:05.115Z,112.50
2019-01-25T07:08:40.371Z,109.30
2019-01-25T07:09:15.876Z,107.80
2019-01-25T07:09:51.127Z,103.00
2019-01-25T07:10:26.471Z,95.20
2019-01-25T07:11:01.878Z,98.60
2019-01-25T07:11:42.146Z,94.80
2019-01-25T07:12:12.737Z,97.70
2019-01-25T07:12:48.168Z,109.30
2019-01-25T07:13:23.704Z,114.30
2019-01-25T07:13:59.005Z,102.60
2019-01-25T07:14:34.550Z,107.00
2019-01-25T07:15:10.097Z,110.20
2019-01-25T07:15:45.839Z,102.80
2019-01-25T07:16:21.115Z,103.30
2019-01-25T07:16:56.613Z,101.20
2019-01-25T07:17:32.227Z,97.50
2019-01-25T07:18:07.657Z,100.20
2019-01-25T07:18:42.948Z,101.80
2019-01-25T07:19:18.529Z,103.80
2019-01-25T07:19:54.053Z,110.90
2019-01-25T07:20:29.254Z,108.60
2019-01-25T07:21:04.755Z,104.20
2019-01-25T07:21:40.245Z,97.00
2019-01-25T07:22:15.691Z,94.90
2019-01-25T07:22:51.412Z,100.00
2019-01-25T07:23:27.249Z,98.10
2019-01-25T07:24:02.877Z,105.40